Time;durP1;ratioP1;P1;durP2;ratioP2;P2;SDS_P1;SDS_P2;PMS_P1;PMS_P2;Temp;Humidity;BMP_temperature;BMP_pressure;BME280_temperature;BME280_humidity;BME280_pressure;Samples;Min_cycle;Max_cycle;Signal;HPM_P1;HPM_P2
2022/02/20 00:00:57;;;;;;;6.65;2.78;;;;;;;3.95;89.24;98797.63;5033245;28;20076;-57
2022/02/20 00:03:22;;;;;;;11.05;2.70;;;;;;;3.99;89.77;98798.00;5031765;28;20032;-54
2022/02/20 00:05:48;;;;;;;11.70;2.55;;;;;;;3.97;89.77;98794.75;5026990;28;20045;-54
2022/02/20 00:08:13;;;;;;;12.75;2.72;;;;;;;3.96;90.12;98787.84;5025688;28;20034;-56
2022/02/20 00:10:39;;;;;;;10.60;2.58;;;;;;;4.03;89.66;98789.44;5032378;28;20049;-54
2022/02/20 00:13:04;;;;;;;10.45;2.53;;;;;;;4.03;90.59;98802.69;5026533;28;20037;-55
2022/02/20 00:15:31;;;;;;;9.27;2.50;;;;;;;4.12;89.34;98792.69;5030848;28;20048;-56
2022/02/20 00:17:57;;;;;;;5.68;2.22;;;;;;;4.11;89.24;98802.44;5033070;28;20380;-52
2022/02/20 00:20:25;;;;;;;8.35;2.67;;;;;;;4.20;88.76;98813.66;5027542;28;20520;-54
2022/02/20 00:22:51;;;;;;;14.50;2.17;;;;;;;4.22;88.77;98816.06;5037544;28;20051;-54
2022/02/20 00:25:16;;;;;;;8.07;2.97;;;;;;;4.32;88.13;98830.53;5034578;28;20086;-53
2022/02/20 00:27:42;;;;;;;7.80;2.08;;;;;;;4.27;88.99;98837.50;5038514;28;20025;-54
2022/02/20 00:30:07;;;;;;;10.07;2.40;;;;;;;4.31;89.10;98844.00;5039403;28;20655;-53
2022/02/20 00:32:33;;;;;;;9.07;2.33;;;;;;;4.31;88.99;98849.31;5037373;28;20056;-54
2022/02/20 00:34:58;;;;;;;9.57;2.78;;;;;;;4.27;89.38;98856.06;5031808;28;20040;-55
2022/02/20 00:37:23;;;;;;;4.47;2.38;;;;;;;4.23;90.34;98868.13;5035411;28;20041;-54
2022/02/20 00:39:49;;;;;;;5.70;2.60;;;;;;;4.28;90.56;98852.38;5031795;28;20068;-55
2022/02/20 00:42:14;;;;;;;5.68;2.35;;;;;;;4.31;90.55;98854.59;5036046;28;20127;-54
2022/02/20 00:44:40;;;;;;;8.18;3.15;;;;;;;4.28;90.81;98855.84;5034289;28;20033;-54
2022/02/20 00:47:05;;;;;;;9.90;2.80;;;;;;;4.34;90.25;98859.47;5032204;28;20041;-55
2022/02/20 00:49:31;;;;;;;5.93;2.38;;;;;;;4.43;90.45;98866.19;5035196;28;20034;-55
2022/02/20 00:51:56;;;;;;;9.57;2.60;;;;;;;4.48;89.93;98866.38;5035412;28;20041;-54
2022/02/20 00:54:22;;;;;;;9.80;2.75;;;;;;;4.50;89.36;98864.31;5031738;28;20406;-55
2022/02/20 00:56:47;;;;;;;12.40;2.90;;;;;;;4.52;89.35;98875.53;5030276;28;20395;-53
2022/02/20 00:59:12;;;;;;;27.20;3.42;;;;;;;4.51;89.48;98891.66;5031442;28;20468;-54
2022/02/20 01:01:38;;;;;;;10.30;3.20;;;;;;;4.58;89.74;98905.72;5033922;28;20053;-53
2022/02/20 01:04:03;;;;;;;9.85;2.65;;;;;;;4.58;90.01;98920.84;5035898;28;20486;-55
2022/02/20 01:06:29;;;;;;;14.90;2.72;;;;;;;4.47;90.96;98917.81;5038716;28;20487;-54
2022/02/20 01:08:54;;;;;;;9.82;2.47;;;;;;;4.52;91.03;98920.66;5036244;28;20034;-54
2022/02/20 01:11:20;;;;;;;10.30;2.92;;;;;;;4.48;91.62;98919.44;5035635;28;20048;-54
2022/02/20 01:13:45;;;;;;;11.30;2.70;;;;;;;4.46;92.40;98931.28;5032868;28;20029;-56
2022/02/20 01:16:11;;;;;;;11.43;2.90;;;;;;;4.48;93.05;98935.38;5035143;28;20153;-55
2022/02/20 01:18:36;;;;;;;10.95;2.95;;;;;;;4.48;93.38;98935.38;5046936;28;20167;-54
2022/02/20 01:21:02;;;;;;;10.52;2.42;;;;;;;4.41;94.61;98923.97;5034792;28;20045;-55
2022/02/20 01:23:27;;;;;;;7.15;2.45;;;;;;;4.44;94.96;98920.91;5034484;28;20693;-55
2022/02/20 01:25:53;;;;;;;5.68;2.30;;;;;;;4.37;95.15;98914.81;5032712;28;20048;-55
2022/02/20 01:28:18;;;;;;;11.15;2.70;;;;;;;4.36;95.10;98920.31;5030697;28;20029;-55
2022/02/20 01:30:44;;;;;;;11.43;2.30;;;;;;;4.40;95.06;98921.53;5033057;28;20045;-54
2022/02/20 01:33:09;;;;;;;7.78;2.70;;;;;;;4.41;94.31;98928.47;5033009;28;20538;-56
2022/02/20 01:35:34;;;;;;;10.00;2.85;;;;;;;4.50;93.58;98922.72;5037480;28;20447;-55
2022/02/20 01:38:00;;;;;;;7.70;2.60;;;;;;;4.56;93.30;98925.53;5030895;28;20041;-54
2022/02/20 01:40:27;;;;;;;10.27;2.53;;;;;;;4.63;93.13;98926.34;5029697;28;20638;-54
2022/02/20 01:42:52;;;;;;;15.25;2.83;;;;;;;4.57;93.00;98933.31;5029398;28;20202;-54
2022/02/20 01:45:18;;;;;;;15.00;3.33;;;;;;;4.63;92.74;98931.66;5033939;28;20037;-54
2022/02/20 01:47:43;;;;;;;8.82;2.75;;;;;;;4.75;91.86;98940.56;5035160;28;20040;-54
2022/02/20 01:50:10;;;;;;;8.88;2.78;;;;;;;4.70;92.21;98921.81;5031497;28;20045;-54
2022/02/20 01:52:36;;;;;;;13.52;3.13;;;;;;;4.65;91.87;98914.47;5044275;28;20024;-55
2022/02/20 01:55:07;;;;;;;9.90;2.83;;;;;;;4.51;92.35;98919.03;5033545;28;20053;-52
2022/02/20 01:57:32;;;;;;;;;;;;;;;4.50;92.28;98920.06;5029662;28;20483;-53
2022/02/20 01:59:58;;;;;;;12.35;2.53;;;;;;;4.43;92.94;98911.31;5026275;28;19920;-54
2022/02/20 02:02:23;;;;;;;18.33;2.63;;;;;;;4.46;92.30;98923.34;5017233;28;20042;-55
2022/02/20 02:04:48;;;;;;;11.45;3.10;;;;;;;4.45;92.27;98929.69;5032645;28;20051;-54
2022/02/20 02:07:14;;;;;;;8.75;2.50;;;;;;;4.51;92.16;98929.63;5028966;28;20041;-54
2022/02/20 02:09:39;;;;;;;13.75;2.83;;;;;;;4.29;93.18;98937.09;5028061;28;20044;-54
2022/02/20 02:12:05;;;;;;;10.85;3.00;;;;;;;4.32;93.08;98930.53;5036543;28;20041;-53
2022/02/20 02:14:30;;;;;;;15.10;3.05;;;;;;;4.16;93.56;98926.50;5032371;28;20505;-53
2022/02/20 02:16:57;;;;;;;15.13;3.03;;;;;;;4.14;93.87;98927.72;5036712;28;20415;-53
2022/02/20 02:19:22;;;;;;;16.10;3.13;;;;;;;4.07;94.37;98928.56;5034141;28;20065;-53
2022/02/20 02:21:47;;;;;;;13.40;2.88;;;;;;;4.14;94.39;98938.31;5035154;28;20048;-54
2022/02/20 02:24:13;;;;;;;17.98;3.15;;;;;;;4.14;93.96;98925.88;5035362;28;20029;-54
2022/02/20 02:26:38;;;;;;;10.43;2.80;;;;;;;4.27;93.20;98935.66;5018581;28;20549;-54
2022/02/20 02:29:04;;;;;;;14.50;3.58;;;;;;;4.36;92.71;98929.09;5012046;28;20091;-55
2022/02/20 02:31:30;;;;;;;11.85;2.85;;;;;;;4.47;91.30;98939.06;5035343;28;20049;-53
2022/02/20 02:33:55;;;;;;;14.15;3.10;;;;;;;4.53;89.93;98943.50;5029238;28;20075;-54
2022/02/20 02:36:20;;;;;;;16.80;3.03;;;;;;;4.62;89.62;98949.41;5027004;28;20041;-53
2022/02/20 02:38:46;;;;;;;19.70;3.83;;;;;;;4.60;89.14;98948.00;5033551;28;20284;-53
2022/02/20 02:41:11;;;;;;;12.95;3.47;;;;;;;4.59;88.99;98951.66;5039209;28;20056;-54
2022/02/20 02:43:37;;;;;;;12.80;3.20;;;;;;;4.56;89.54;98960.84;5030535;28;20044;-55
2022/02/20 02:46:03;;;;;;;6.82;2.45;;;;;;;4.44;90.14;98971.34;5032772;28;20123;-54
2022/02/20 02:48:28;;;;;;;15.52;2.97;;;;;;;4.15;91.92;98971.81;5029551;28;20068;-53
2022/02/20 02:50:54;;;;;;;10.65;3.38;;;;;;;4.01;93.22;98969.16;5029474;28;20500;-54
2022/02/20 02:53:19;;;;;;;7.93;2.63;;;;;;;3.97;94.14;98969.78;5036190;28;20092;-55
2022/02/20 02:55:46;;;;;;;8.15;2.65;;;;;;;3.78;95.27;98961.63;5031034;28;20345;-54
2022/02/20 02:58:16;;;;;;;12.05;3.40;;;;;;;3.67;95.88;98963.06;5034287;28;20462;-54
2022/02/20 03:00:41;;;;;;;16.65;3.25;;;;;;;3.71;95.35;98962.66;5032543;28;20049;-54
2022/02/20 03:03:07;;;;;;;12.43;3.03;;;;;;;3.83;95.03;98969.78;5031986;28;20114;-55
2022/02/20 03:05:32;;;;;;;8.07;2.55;;;;;;;3.84;94.72;98966.13;5028114;28;20037;-53
2022/02/20 03:07:57;;;;;;;21.23;3.33;;;;;;;4.19;92.76;98979.13;5034848;28;20045;-54
2022/02/20 03:10:23;;;;;;;11.95;2.85;;;;;;;4.35;91.06;98983.19;5033711;28;20615;-54
2022/02/20 03:12:48;;;;;;;11.70;2.85;;;;;;;4.38;90.50;98993.38;5034594;28;20037;-54
2022/02/20 03:15:14;;;;;;;11.48;3.10;;;;;;;4.76;88.28;98984.69;5027679;28;20586;-55
2022/02/20 03:17:41;;;;;;;14.82;2.92;;;;;;;4.76;87.91;99003.25;5028115;28;20488;-54
2022/02/20 03:20:07;;;;;;;15.35;3.38;;;;;;;4.75;87.80;99009.59;5031782;28;20400;-54
2022/02/20 03:22:32;;;;;;;8.57;2.10;;;;;;;4.92;86.88;99012.63;5031558;28;20018;-54
2022/02/20 03:24:58;;;;;;;7.22;2.83;;;;;;;4.92;87.03;99008.13;5031561;28;20111;-54
2022/02/20 03:27:23;;;;;;;8.55;2.30;;;;;;;4.76;88.44;99005.91;5028313;28;20030;-54
2022/02/20 03:29:49;;;;;;;11.88;2.83;;;;;;;4.64;89.12;99015.56;5027329;28;20040;-54
2022/02/20 03:32:14;;;;;;;13.20;2.80;;;;;;;4.51;90.64;99019.88;5029909;28;20037;-54
2022/02/20 03:34:39;;;;;;;20.80;3.25;;;;;;;4.47;91.41;99023.97;5031473;28;20026;-54
2022/02/20 03:37:05;;;;;;;14.00;3.42;;;;;;;4.47;92.00;99028.47;5035365;28;20394;-54
2022/02/20 03:39:30;;;;;;;9.93;2.85;;;;;;;4.46;92.53;99032.94;5038306;28;20174;-55
2022/02/20 03:41:56;;;;;;;14.50;2.90;;;;;;;4.51;92.67;99038.44;5031882;28;20408;-54
2022/02/20 03:44:21;;;;;;;14.55;3.10;;;;;;;4.61;92.23;99031.91;5033842;28;20135;-54
2022/02/20 03:46:46;;;;;;;19.30;3.10;;;;;;;4.65;91.69;99041.09;5032823;28;20041;-55
2022/02/20 03:49:12;;;;;;;18.58;3.70;;;;;;;4.54;91.83;99046.03;5031281;28;20044;-55
2022/02/20 03:51:37;;;;;;;10.20;1.70;;;;;;;4.49;92.19;99042.34;5030374;28;20061;-54
2022/02/20 03:54:03;;;;;;;17.65;3.00;;;;;;;4.40;92.36;99048.91;5031017;28;20044;-53
2022/02/20 03:56:28;;;;;;;21.10;3.30;;;;;;;4.24;93.58;99053.63;5029662;28;20042;-55
2022/02/20 03:58:53;;;;;;;16.75;3.50;;;;;;;4.04;94.40;99066.06;5038883;28;20037;-55
2022/02/20 04:01:19;;;;;;;13.95;2.88;;;;;;;4.04;95.11;99060.75;5031713;28;20399;-55
2022/02/20 04:03:44;;;;;;;9.93;2.72;;;;;;;3.98;95.09;99062.38;5031860;28;20099;-55
2022/02/20 04:06:10;;;;;;;11.90;3.25;;;;;;;3.91;95.64;99066.88;5031207;28;20038;-55
2022/02/20 04:08:35;;;;;;;15.52;4.00;;;;;;;3.95;95.90;99056.69;5030687;28;20411;-55
2022/02/20 04:11:01;;;;;;;17.17;3.72;;;;;;;3.89;95.87;99066.25;5031980;28;20053;-55
2022/02/20 04:13:26;;;;;;;23.45;4.28;;;;;;;3.87;95.91;99060.38;5031743;28;20075;-55
2022/02/20 04:15:52;;;;;;;18.88;3.22;;;;;;;3.83;95.57;99056.47;5037844;28;20049;-54
2022/02/20 04:18:18;;;;;;;16.75;2.75;;;;;;;3.82;95.83;99065.44;5040259;28;20513;-55
2022/02/20 04:20:43;;;;;;;18.25;3.63;;;;;;;3.86;95.71;99069.31;5037920;28;20060;-56
2022/02/20 04:23:08;;;;;;;19.70;3.22;;;;;;;3.96;95.41;99072.38;5039280;28;20083;-54
2022/02/20 04:25:34;;;;;;;11.30;3.40;;;;;;;4.02;95.32;99084.84;5033946;28;20034;-54
2022/02/20 04:27:59;;;;;;;18.67;3.50;;;;;;;4.11;95.37;99086.25;5037880;28;20377;-55
2022/02/20 04:30:25;;;;;;;13.57;3.25;;;;;;;4.15;94.88;99085.88;5034200;28;20422;-53
2022/02/20 04:32:51;;;;;;;12.40;2.85;;;;;;;4.14;94.61;99086.88;5036192;28;20025;-54
2022/02/20 04:35:16;;;;;;;22.52;3.45;;;;;;;4.03;94.93;99097.06;5037923;28;20155;-54
2022/02/20 04:37:42;;;;;;;17.45;3.13;;;;;;;4.10;94.40;99087.28;5041065;28;20338;-55
2022/02/20 04:40:08;;;;;;;17.92;3.30;;;;;;;3.97;95.05;99089.09;5031298;28;20122;-54
2022/02/20 04:42:33;;;;;;;16.25;3.30;;;;;;;4.02;94.77;99079.53;5031464;28;20026;-55
2022/02/20 04:44:59;;;;;;;14.25;3.67;;;;;;;3.94;95.05;99071.75;5034783;28;20496;-54
2022/02/20 04:47:24;;;;;;;11.95;3.20;;;;;;;3.84;95.37;99071.34;5036710;28;20068;-55
2022/02/20 04:49:50;;;;;;;14.82;2.88;;;;;;;3.86;95.63;99053.41;5031722;28;20033;-55
2022/02/20 04:52:15;;;;;;;18.10;2.88;;;;;;;3.88;95.42;99044.22;5030259;28;20385;-52
2022/02/20 04:54:40;;;;;;;14.20;3.25;;;;;;;3.80;95.68;99064.84;5036800;28;20379;-54
2022/02/20 04:57:07;;;;;;;9.23;2.95;;;;;;;3.80;95.71;99063.00;5031859;28;20095;-54
2022/02/20 04:59:32;;;;;;;13.82;3.45;;;;;;;3.83;95.86;99059.13;5037290;28;20508;-54
2022/02/20 05:01:57;;;;;;;21.05;3.50;;;;;;;3.78;95.84;99065.03;5030802;28;20037;-54
2022/02/20 05:04:23;;;;;;;11.82;2.70;;;;;;;3.74;96.45;99066.44;5040577;28;20446;-53
2022/02/20 05:06:48;;;;;;;9.85;2.97;;;;;;;3.83;96.39;99069.72;5029396;28;20046;-54
2022/02/20 05:09:14;;;;;;;10.63;2.50;;;;;;;3.89;96.24;99068.91;5037717;28;20434;-54
2022/02/20 05:11:39;;;;;;;17.80;3.45;;;;;;;4.08;95.04;99076.06;5034681;28;20112;-53
2022/02/20 05:14:04;;;;;;;13.48;3.17;;;;;;;4.27;94.12;99076.28;5037660;28;20025;-54
2022/02/20 05:16:30;;;;;;;16.98;3.45;;;;;;;4.33;93.88;99067.47;5035231;28;20041;-55
2022/02/20 05:18:56;;;;;;;12.63;3.42;;;;;;;4.32;93.96;99079.13;5030647;28;20040;-54
2022/02/20 05:21:22;;;;;;;10.77;3.28;;;;;;;4.39;93.81;99069.28;5035680;28;20029;-54
2022/02/20 05:23:47;;;;;;;18.40;3.92;;;;;;;4.36;94.43;99061.75;5029920;28;20120;-54
2022/02/20 05:26:13;;;;;;;22.60;3.10;;;;;;;4.43;93.94;99051.94;5029275;28;20048;-53
2022/02/20 05:28:41;;;;;;;20.92;2.88;;;;;;;4.48;93.76;99052.16;5042549;28;20433;-55
2022/02/20 05:31:07;;;;;;;14.05;2.60;;;;;;;4.51;93.55;99048.25;5034330;28;20056;-54
2022/02/20 05:33:32;;;;;;;15.32;3.65;;;;;;;4.39;94.25;99050.72;5031272;28;20030;-54
2022/02/20 05:35:58;;;;;;;15.70;3.13;;;;;;;4.32;94.53;99037.47;5029361;28;20088;-54
2022/02/20 05:38:23;;;;;;;16.08;3.40;;;;;;;4.26;95.03;99040.94;5034495;28;20478;-56
2022/02/20 05:40:49;;;;;;;10.82;3.38;;;;;;;4.19;95.53;99036.66;5029447;28;20045;-54
2022/02/20 05:43:14;;;;;;;12.80;2.85;;;;;;;4.25;95.75;99039.31;5034821;28;20049;-52
2022/02/20 05:45:39;;;;;;;13.30;3.63;;;;;;;4.16;96.21;99029.13;5040075;28;20056;-56
2022/02/20 05:48:05;;;;;;;15.23;3.10;;;;;;;4.27;96.01;99033.81;5035015;28;20378;-55
2022/02/20 05:50:30;;;;;;;7.90;2.90;;;;;;;4.27;96.20;99020.56;5032582;28;20052;-54
2022/02/20 05:52:56;;;;;;;14.40;3.60;;;;;;;4.22;96.51;99020.34;5036890;28;20037;-53
2022/02/20 05:55:21;;;;;;;10.93;3.03;;;;;;;4.21;96.66;99016.06;5034033;28;20506;-55
2022/02/20 05:57:49;;;;;;;17.23;3.45;;;;;;;4.24;96.71;99018.28;5034766;28;20053;-54
2022/02/20 06:00:16;;;;;;;16.30;3.50;;;;;;;4.29;96.66;99026.44;5037677;28;20029;-54
2022/02/20 06:02:41;;;;;;;16.02;2.90;;;;;;;4.28;96.69;99022.19;5037205;28;20040;-55
2022/02/20 06:05:07;;;;;;;12.60;3.40;;;;;;;4.42;96.43;99012.34;5032852;28;20041;-54
2022/02/20 06:07:33;;;;;;;13.43;4.22;;;;;;;4.43;96.39;99014.78;5029005;28;20033;-54
2022/02/20 06:09:58;;;;;;;9.98;3.08;;;;;;;4.48;96.01;99030.91;5034323;28;20033;-55
2022/02/20 06:12:24;;;;;;;13.80;3.17;;;;;;;4.53;96.16;99012.53;5029368;28;20044;-55
2022/02/20 06:14:49;;;;;;;16.38;3.05;;;;;;;4.61;96.05;99022.09;5038338;28;20481;-54
2022/02/20 06:17:14;;;;;;;14.73;3.17;;;;;;;4.61;96.30;99024.75;5029785;28;20433;-54
2022/02/20 06:19:40;;;;;;;18.73;3.15;;;;;;;4.72;95.84;99037.41;5033382;28;20057;-52
2022/02/20 06:22:05;;;;;;;19.95;3.13;;;;;;;4.75;95.51;99034.31;5034117;28;20042;-54
2022/02/20 06:24:31;;;;;;;14.02;2.92;;;;;;;4.76;95.89;99027.16;5034223;28;20032;-56
2022/02/20 06:26:58;;;;;;;9.23;2.83;;;;;;;4.80;96.10;99039.00;5032499;28;20391;-54
2022/02/20 06:29:24;;;;;;;15.90;3.15;;;;;;;4.80;96.10;99033.69;5034632;28;20106;-55
2022/02/20 06:31:49;;;;;;;14.75;3.47;;;;;;;4.79;96.58;99025.94;5028169;28;20052;-53
2022/02/20 06:34:15;;;;;;;24.55;3.78;;;;;;;4.84;96.09;99023.44;5027380;28;20594;-56
2022/02/20 06:36:41;;;;;;;19.15;3.70;;;;;;;4.88;96.05;99025.47;5033519;28;20040;-54
2022/02/20 06:39:06;;;;;;;27.08;3.60;;;;;;;4.92;95.78;99021.41;5035961;28;20017;-55
2022/02/20 06:41:32;;;;;;;9.90;3.00;;;;;;;4.89;96.47;99016.50;5040466;28;20146;-54
2022/02/20 06:43:57;;;;;;;22.67;4.20;;;;;;;4.96;96.38;99011.97;5034717;28;20049;-56
2022/02/20 06:46:23;;;;;;;7.82;3.00;;;;;;;5.07;96.38;99007.84;5033581;28;20053;-55
2022/02/20 06:48:48;;;;;;;10.30;3.10;;;;;;;5.08;96.22;99004.16;5028753;28;20073;-53
2022/02/20 06:51:13;;;;;;;10.48;3.25;;;;;;;5.08;96.38;98998.84;5032680;28;20070;-56
2022/02/20 06:53:39;;;;;;;13.77;3.47;;;;;;;5.13;96.21;98995.53;5030379;28;20037;-55
2022/02/20 06:56:04;;;;;;;22.10;3.97;;;;;;;5.14;96.29;98997.16;5031509;28;20037;-53
2022/02/20 06:58:30;;;;;;;10.40;3.40;;;;;;;5.16;95.95;98997.78;5032699;28;20056;-55
2022/02/20 07:00:55;;;;;;;14.43;3.47;;;;;;;5.16;96.36;98979.97;5032622;28;20059;-54
2022/02/20 07:03:20;;;;;;;17.60;3.40;;;;;;;5.16;96.65;98987.13;5030868;28;20380;-53
2022/02/20 07:05:46;;;;;;;11.13;3.00;;;;;;;5.26;96.18;98989.34;5027760;28;20332;-54
2022/02/20 07:08:11;;;;;;;18.05;3.80;;;;;;;5.29;96.11;98989.75;5027181;28;20029;-54
2022/02/20 07:10:37;;;;;;;15.85;3.50;;;;;;;5.35;96.20;98999.50;5027277;28;20049;-55
2022/02/20 07:13:02;;;;;;;12.40;3.03;;;;;;;5.37;95.79;98981.50;5028747;28;20538;-53
2022/02/20 07:15:27;;;;;;;9.02;3.42;;;;;;;5.43;96.02;98989.66;5028803;28;20049;-55
2022/02/20 07:17:53;;;;;;;15.07;3.35;;;;;;;5.45;96.02;98972.44;5034273;28;20471;-54
2022/02/20 07:20:18;;;;;;;29.60;4.55;;;;;;;5.43;95.81;98974.50;5035439;28;20611;-54
2022/02/20 07:22:45;;;;;;;14.32;3.63;;;;;;;5.50;95.67;98974.47;5033279;28;20458;-52
2022/02/20 07:25:11;;;;;;;15.07;3.70;;;;;;;5.51;95.90;98976.09;5036888;28;20094;-53
2022/02/20 07:27:40;;;;;;;8.10;2.38;;;;;;;5.59;95.99;98978.47;5028878;28;20076;-54
2022/02/20 07:30:07;;;;;;;16.92;3.67;;;;;;;5.61;96.16;98984.41;5026728;28;20036;-55
2022/02/20 07:32:33;;;;;;;16.05;3.40;;;;;;;5.56;96.12;98976.25;5031481;28;20061;-55
2022/02/20 07:34:58;;;;;;;19.08;3.50;;;;;;;5.60;96.23;98980.13;5032042;28;20065;-54
2022/02/20 07:37:24;;;;;;;14.60;3.22;;;;;;;5.67;96.07;98974.75;5038051;28;20047;-55
2022/02/20 07:39:50;;;;;;;21.52;4.45;;;;;;;5.71;96.01;98971.44;5039076;28;20040;-54
2022/02/20 07:42:15;;;;;;;8.15;3.05;;;;;;;5.71;96.10;98968.78;5027566;28;20180;-54
2022/02/20 07:44:42;;;;;;;15.15;3.72;;;;;;;5.73;95.72;98964.06;5027308;28;20041;-54
2022/02/20 07:47:07;;;;;;;13.55;3.28;;;;;;;5.83;95.58;98963.56;5029922;28;20075;-54
2022/02/20 07:49:33;;;;;;;15.30;2.90;;;;;;;5.81;95.37;98954.97;5030393;28;20029;-55
2022/02/20 07:51:58;;;;;;;12.23;2.67;;;;;;;5.84;95.11;98950.06;5032178;28;20467;-53
2022/02/20 07:54:24;;;;;;;11.23;2.70;;;;;;;5.88;95.10;98953.09;5030680;28;20382;-54
2022/02/20 07:56:50;;;;;;;13.65;3.83;;;;;;;5.93;95.05;98955.09;5028094;28;20048;-54
2022/02/20 07:59:15;;;;;;;13.52;2.83;;;;;;;5.96;95.00;98946.69;5027273;28;20025;-55
2022/02/20 08:01:41;;;;;;;17.13;4.05;;;;;;;6.00;94.20;98947.91;5033398;28;20053;-54
2022/02/20 08:04:06;;;;;;;12.55;3.28;;;;;;;6.05;94.12;98948.06;5030249;28;20041;-54
2022/02/20 08:06:31;;;;;;;9.05;2.33;;;;;;;6.04;93.89;98933.94;5027605;28;20048;-55
2022/02/20 08:09:01;;;;;;;10.57;2.83;;;;;;;6.10;93.87;98936.75;5031805;28;20092;-55
2022/02/20 08:11:26;;;;;;;6.88;2.17;;;;;;;6.13;93.69;98952.28;5030550;28;20050;-55
2022/02/20 08:13:52;;;;;;;8.98;2.60;;;;;;;6.16;93.56;98944.66;5034506;28;20048;-55
2022/02/20 08:16:17;;;;;;;8.30;2.75;;;;;;;6.18;93.94;98942.59;5028535;28;20049;-58
2022/02/20 08:18:45;;;;;;;9.95;1.98;;;;;;;6.23;93.90;98937.41;5036767;28;20484;-55
2022/02/20 08:21:10;;;;;;;8.85;2.78;;;;;;;6.17;94.26;98929.53;5033750;28;20037;-55
2022/02/20 08:23:36;;;;;;;9.65;2.50;;;;;;;6.22;93.83;98938.47;5027768;28;20068;-54
2022/02/20 08:26:01;;;;;;;8.27;2.10;;;;;;;6.24;93.98;98923.09;5032513;28;20384;-55
2022/02/20 08:28:26;;;;;;;11.82;2.60;;;;;;;6.26;94.25;98930.84;5037064;28;20033;-55
2022/02/20 08:30:52;;;;;;;8.23;2.33;;;;;;;6.29;94.44;98942.88;5031216;28;20049;-54
2022/02/20 08:33:17;;;;;;;6.97;2.47;;;;;;;6.28;94.35;98935.94;5030279;28;20022;-54
2022/02/20 08:35:43;;;;;;;9.20;2.67;;;;;;;6.39;93.64;98932.53;5036973;28;20046;-54
2022/02/20 08:38:09;;;;;;;6.68;2.03;;;;;;;6.38;94.05;98939.72;5027480;28;20411;-55
2022/02/20 08:40:36;;;;;;;6.55;2.03;;;;;;;6.46;93.73;98938.59;5026603;28;20087;-53
2022/02/20 08:43:02;;;;;;;6.70;2.13;;;;;;;6.49;93.29;98930.19;5036361;28;20047;-54
2022/02/20 08:45:27;;;;;;;10.85;2.50;;;;;;;6.45;93.81;98934.31;5032819;28;20517;-55
2022/02/20 08:47:53;;;;;;;4.70;1.98;;;;;;;6.47;93.26;98942.91;5033270;28;20029;-56
2022/02/20 08:50:18;;;;;;;6.47;2.30;;;;;;;6.47;93.28;98942.91;5035130;28;20124;-55
2022/02/20 08:52:45;;;;;;;8.93;2.35;;;;;;;6.53;93.18;98942.00;5035836;28;20369;-54
2022/02/20 08:55:11;;;;;;;7.68;2.20;;;;;;;6.63;92.82;98936.16;5036638;28;20423;-54
2022/02/20 08:57:36;;;;;;;7.75;1.85;;;;;;;6.71;92.21;98943.81;5035673;28;20087;-53
2022/02/20 09:00:05;;;;;;;4.78;1.75;;;;;;;6.73;91.92;98935.63;5030442;28;20033;-54
2022/02/20 09:02:31;;;;;;;4.53;1.65;;;;;;;6.77;92.30;98931.47;5037373;28;20115;-55
2022/02/20 09:04:56;;;;;;;6.72;1.88;;;;;;;6.74;92.52;98945.22;5033292;28;20470;-54
2022/02/20 09:07:21;;;;;;;5.00;2.05;;;;;;;6.78;92.76;98941.09;5032667;28;20041;-55
2022/02/20 09:09:47;;;;;;;4.18;1.52;;;;;;;6.83;92.72;98925.25;5038140;28;20737;-54
2022/02/20 09:12:12;;;;;;;3.72;1.90;;;;;;;6.82;93.24;98944.94;5038037;28;20046;-55
2022/02/20 09:14:41;;;;;;;2.67;1.60;;;;;;;6.93;92.82;98936.16;5030511;28;20033;-55
2022/02/20 09:17:06;;;;;;;7.47;2.03;;;;;;;6.84;93.47;98933.03;5033849;28;20037;-54
2022/02/20 09:19:32;;;;;;;6.00;1.88;;;;;;;6.85;93.41;98925.84;5033448;28;20033;-55
2022/02/20 09:21:57;;;;;;;3.58;1.70;;;;;;;6.90;93.37;98939.28;5038123;28;20049;-55
2022/02/20 09:24:23;;;;;;;3.65;1.90;;;;;;;6.98;92.63;98944.28;5035454;28;20078;-54
2022/02/20 09:26:50;;;;;;;4.40;1.50;;;;;;;7.05;92.30;98937.03;5033608;28;20045;-55
2022/02/20 09:29:15;;;;;;;5.32;1.85;;;;;;;7.06;91.95;98927.19;5037156;28;20037;-55
2022/02/20 09:31:41;;;;;;;2.42;1.40;;;;;;;7.03;91.94;98920.44;5026774;28;20399;-54
2022/02/20 09:34:06;;;;;;;7.20;2.00;;;;;;;7.10;91.59;98910.50;5042423;28;20044;-56
2022/02/20 09:36:32;;;;;;;7.13;1.65;;;;;;;7.04;91.84;98898.09;5029407;28;20033;-55
2022/02/20 09:38:57;;;;;;;5.47;2.05;;;;;;;7.19;91.35;98907.50;5031389;28;20037;-55
2022/02/20 09:41:27;;;;;;;5.05;1.30;;;;;;;7.16;91.57;98910.63;5033481;28;20037;-54
2022/02/20 09:43:54;;;;;;;2.05;1.23;;;;;;;7.11;91.28;98882.00;5034888;28;20038;-54
2022/02/20 09:46:20;;;;;;;1.30;1.10;;;;;;;7.20;91.78;98882.50;5029504;28;20524;-54
2022/02/20 09:48:45;;;;;;;8.82;1.60;;;;;;;7.15;92.01;98880.50;5036051;28;20079;-54
2022/02/20 09:51:11;;;;;;;4.57;1.27;;;;;;;7.31;90.70;98857.69;5027182;28;20514;-56
2022/02/20 09:53:36;;;;;;;6.60;1.80;;;;;;;7.32;91.12;98859.34;5034364;28;20037;-56
2022/02/20 09:56:02;;;;;;;5.13;1.70;;;;;;;7.35;90.61;98859.69;5029592;28;20322;-57
2022/02/20 09:58:27;;;;;;;5.30;1.85;;;;;;;7.29;90.40;98875.81;5035497;28;20052;-54
2022/02/20 10:00:53;;;;;;;5.15;1.70;;;;;;;7.40;89.86;98859.00;5036017;28;20549;-54
2022/02/20 10:03:28;;;;;;;1.55;1.15;;;;;;;7.33;90.22;98887.63;5029591;28;20041;-54
2022/02/20 10:05:53;;;;;;;2.90;1.33;;;;;;;7.38;90.09;98886.94;5032520;28;20049;-55
2022/02/20 10:08:19;;;;;;;4.40;1.27;;;;;;;7.48;89.50;98879.16;5036595;28;20095;-55
2022/02/20 10:10:45;;;;;;;2.15;1.48;;;;;;;7.51;89.21;98892.88;5032279;28;20668;-54
2022/02/20 10:13:10;;;;;;;1.35;1.17;;;;;;;7.60;88.40;98892.53;5029611;28;20025;-55
2022/02/20 10:15:39;;;;;;;2.08;1.20;;;;;;;7.57;88.46;98901.81;5034464;28;20079;-54
2022/02/20 10:18:12;;;;;;;3.22;1.38;;;;;;;7.65;88.07;98903.31;5029874;28;20033;-54
2022/02/20 10:20:38;;;;;;;1.42;0.98;;;;;;;7.69;87.75;98896.47;5028053;28;20552;-55
2022/02/20 10:23:07;;;;;;;4.13;1.50;;;;;;;7.61;88.03;98880.81;5029094;28;20108;-54
2022/02/20 10:25:33;;;;;;;3.78;1.20;;;;;;;7.66;87.70;98865.75;5034774;28;20519;-54
2022/02/20 10:27:58;;;;;;;1.58;1.00;;;;;;;7.66;87.85;98856.91;5037996;28;20032;-53
2022/02/20 10:30:24;;;;;;;5.00;2.00;;;;;;;7.75;87.00;98880.34;5034932;28;20044;-54
2022/02/20 10:33:12;;;;;;;6.00;2.03;;;;;;;7.83;86.69;98897.84;5034273;28;20045;-55
2022/02/20 10:35:39;;;;;;;6.10;2.70;;;;;;;7.85;87.39;98910.97;5028224;28;20619;-54
2022/02/20 10:38:09;;;;;;;4.97;1.92;;;;;;;7.88;87.33;98897.97;5035678;28;20030;-55
2022/02/20 10:40:35;;;;;;;2.83;1.70;;;;;;;8.02;87.58;98911.09;5035664;28;20038;-57
2022/02/20 10:43:02;;;;;;;5.82;1.70;;;;;;;7.89;88.25;98904.13;5033367;28;20116;-56
2022/02/20 10:45:33;;;;;;;2.10;1.40;;;;;;;7.94;88.39;98904.25;5033904;28;20502;-56
2022/02/20 10:47:59;;;;;;;3.53;1.10;;;;;;;7.84;88.18;98893.31;5038893;28;20048;-56
2022/02/20 10:50:27;;;;;;;10.55;1.98;;;;;;;7.76;88.61;98891.81;5028256;28;20458;-56
2022/02/20 10:53:09;;;;;;;6.20;1.42;;;;;;;7.84;88.35;98882.66;5035313;28;20064;-56
2022/02/20 10:55:41;;;;;;;6.25;1.60;;;;;;;7.81;89.11;98877.78;5030529;28;20199;-55
2022/02/20 10:58:18;;;;;;;2.35;1.20;;;;;;;7.88;89.39;98868.63;5033589;28;20026;-55
2022/02/20 11:00:53;;;;;;;4.18;1.85;;;;;;;7.90;89.48;98868.38;5035253;28;20135;-54
2022/02/20 11:03:25;;;;;;;4.88;1.75;;;;;;;7.88;89.66;98860.59;5028799;28;20037;-55
2022/02/20 11:05:51;;;;;;;3.20;1.52;;;;;;;7.77;89.69;98862.25;5028901;28;20115;-55
2022/02/20 11:08:19;;;;;;;4.18;1.70;;;;;;;7.95;89.81;98847.97;5036338;28;20491;-54
2022/02/20 11:10:45;;;;;;;1.67;1.40;;;;;;;7.87;89.02;98848.31;5037522;28;20136;-54
2022/02/20 11:13:11;;;;;;;4.20;2.10;;;;;;;8.08;88.57;98846.88;5035586;28;20454;-55
2022/02/20 11:15:37;;;;;;;3.35;1.50;;;;;;;8.11;88.04;98854.44;5027978;28;20544;-54
2022/02/20 11:18:04;;;;;;;1.90;1.30;;;;;;;8.24;87.57;98855.19;5035402;28;20484;-53
2022/02/20 11:20:30;;;;;;;1.80;1.33;;;;;;;8.18;87.59;98846.28;5033096;28;20060;-56
2022/02/20 11:22:58;;;;;;;1.70;1.40;;;;;;;8.24;88.14;98840.03;5036278;28;20079;-56
2022/02/20 11:25:24;;;;;;;4.32;2.00;;;;;;;8.36;87.36;98839.97;5014429;28;20038;-55
2022/02/20 11:27:49;;;;;;;3.45;1.70;;;;;;;8.48;87.38;98842.63;5014364;28;20590;-54
2022/02/20 11:30:15;;;;;;;2.75;1.40;;;;;;;8.48;86.68;98848.78;5013874;28;20025;-55